Sara Borchard — V2BY8 — position and weather

sailwx.info

Track history (hours):
 
Tides and Currents Weather Stations Pressure Air Temp Water Temp Dewpoint Dewpoint Depression Visibility Wind Speed Wind Dir Waves Ship Positions

Sara Borchard

Last reported at 2015-Jul-05 12:33 UTC. Time now 2015-Jul-05 12:49 UTC.
Position N 37°12' E 012°54'.

Length 134 m; draft 7.5 m.

Type: Ship (hazmat cat A). MMSI: 304962000.

Date/timePositionNaut miles runAvg speedWind from/ knotsBaromVisibWave heightAir tempDewpointWater temp
2015-Jul-05 12:33N 37°12' E 012°54'1515.1
2015-Jul-05 11:33N 37°05' E 013°10'1515.3
2015-Jul-05 10:33N 36°58' E 013°27'1515.0
2015-Jul-05 09:33N 36°50' E 013°43'1515.1
2015-Jul-05 08:33N 36°43' E 013°60'1514.8
2015-Jul-05 07:33N 36°36' E 014°16'1515.2
2015-Jul-05 06:33N 36°29' E 014°33'1515.0
2015-Jul-05 05:33N 36°23' E 014°50'1514.7
2015-Jul-05 04:33N 36°17' E 015°07'1515.1
2015-Jul-05 03:32N 36°12' E 015°25'1615.3
2015-Jul-05 02:31N 36°05' E 015°42'1515.4
2015-Jul-05 01:32N 35°59' E 015°59'4514.9
2015-Jul-04 22:32N 35°42' E 016°50'1715.1
2015-Jul-04 21:23N 35°35' E 017°10'  
2015-Jul-02 01:23N 31°59' E 030°37'1616.4
2015-Jul-02 00:23N 31°59' E 030°57'3016.4
2015-Jul-01 22:31N 31°60' E 031°33'1816.6
2015-Jul-01 21:27N 31°60' E 031°53'7217.0
2015-Jul-01 17:12N 31°57' E 033°18'1217.0
2015-Jul-01 16:30N 31°56' E 033°32'1616.9
2015-Jul-01 15:33N 31°55' E 033°51'1816.7
2015-Jul-01 14:28N 31°54' E 034°13'27 1.0
2015-Jun-30 12:31N 32°12' E 034°35'1515.4
2015-Jun-30 11:33N 32°26' E 034°41'1515.4
2015-Jun-30 10:33N 32°41' E 034°45'13 1.3
2015-Jun-30 00:17N 32°53' E 034°53'  
2015-Jun-27 08:25N 37°43' E 016°11'1415.8
2015-Jun-27 07:33N 37°48' E 015°55'1515.4
2015-Jun-27 06:34N 37°55' E 015°38'1515.0
2015-Jun-27 05:34N 38°10' E 015°35'1212.3
2015-Jun-27 04:33N 38°22' E 015°36'1616.2
2015-Jun-27 03:33N 38°33' E 015°20'1616.1
2015-Jun-27 02:33N 38°44' E 015°05'6615.9
2015-Jun-26 22:24N 39°28' E 014°02'1416.1
2015-Jun-26 21:34N 39°37' E 013°49'1616.0
2015-Jun-26 20:33N 39°48' E 013°34'5516.0
2015-Jun-26 17:07N 40°25' E 012°41'916.1
2015-Jun-26 16:33N 40°32' E 012°32'11416.3
2015-Jun-26 09:33N 41°49' E 010°40'3815.9
2015-Jun-26 07:11N 42°15' E 010°03'1015.7
2015-Jun-26 06:34N 42°23' E 009°55'1615.7
2015-Jun-26 05:33N 42°38' E 009°49'1615.9
2015-Jun-26 04:33N 42°53' E 009°42'1616.0
2015-Jun-26 03:34N 43°08' E 009°36'1615.9
2015-Jun-26 02:33N 43°23' E 009°29'1615.6
2015-Jun-26 01:33N 43°38' E 009°21'1615.6
2015-Jun-26 00:34N 43°52' E 009°13'1616.0
2015-Jun-25 23:33N 44°07' E 009°05'1615.8
2015-Jun-25 22:33N 44°22' E 008°57'3 3.3
2015-Jun-25 21:33N 44°24' E 008°54'0 0.0
2015-Jun-25 20:33N 44°24' E 008°54'0 0.0
2015-Jun-25 19:33N 44°24' E 008°54'0 0.0
2015-Jun-25 18:32N 44°24' E 008°54'0 0.0
2015-Jun-25 17:32N 44°24' E 008°54'0 0.0
2015-Jun-25 16:31N 44°24' E 008°54'0 0.0
2015-Jun-25 15:31N 44°24' E 008°54'0 0.0
2015-Jun-25 14:33N 44°24' E 008°54'0 0.0
2015-Jun-25 13:33N 44°24' E 008°54'  
Track history (hours):
 
Tides and Currents Weather Stations Pressure Air Temp Water Temp Dewpoint Dewpoint Depression Visibility Wind Speed Wind Dir Waves Ship Positions

Sara Borchard

Last reported at 2015-Jul-05 12:33 UTC. Time now 2015-Jul-05 12:49 UTC.
Position N 37°12' E 012°54'.

Length 134 m; draft 7.5 m.

Type: Ship (hazmat cat A). MMSI: 304962000.

Date/timePositionNaut miles runAvg speedWind from/ knotsBaromVisibWave heightAir tempDewpointWater temp
2015-Jul-05 12:33N 37°12' E 012°54'1515.1
2015-Jul-05 11:33N 37°05' E 013°10'1515.3
2015-Jul-05 10:33N 36°58' E 013°27'1515.0
2015-Jul-05 09:33N 36°50' E 013°43'1515.1
2015-Jul-05 08:33N 36°43' E 013°60'1514.8
2015-Jul-05 07:33N 36°36' E 014°16'1515.2
2015-Jul-05 06:33N 36°29' E 014°33'1515.0
2015-Jul-05 05:33N 36°23' E 014°50'1514.7
2015-Jul-05 04:33N 36°17' E 015°07'1515.1
2015-Jul-05 03:32N 36°12' E 015°25'1615.3
2015-Jul-05 02:31N 36°05' E 015°42'1515.4
2015-Jul-05 01:32N 35°59' E 015°59'4514.9
2015-Jul-04 22:32N 35°42' E 016°50'1715.1
2015-Jul-04 21:23N 35°35' E 017°10'  
2015-Jul-02 01:23N 31°59' E 030°37'1616.4
2015-Jul-02 00:23N 31°59' E 030°57'3016.4
2015-Jul-01 22:31N 31°60' E 031°33'1816.6
2015-Jul-01 21:27N 31°60' E 031°53'7217.0
2015-Jul-01 17:12N 31°57' E 033°18'1217.0
2015-Jul-01 16:30N 31°56' E 033°32'1616.9
2015-Jul-01 15:33N 31°55' E 033°51'1816.7
2015-Jul-01 14:28N 31°54' E 034°13'27 1.0
2015-Jun-30 12:31N 32°12' E 034°35'1515.4
2015-Jun-30 11:33N 32°26' E 034°41'1515.4
2015-Jun-30 10:33N 32°41' E 034°45'13 1.3
2015-Jun-30 00:17N 32°53' E 034°53'  
2015-Jun-27 08:25N 37°43' E 016°11'1415.8
2015-Jun-27 07:33N 37°48' E 015°55'1515.4
2015-Jun-27 06:34N 37°55' E 015°38'1515.0
2015-Jun-27 05:34N 38°10' E 015°35'1212.3
2015-Jun-27 04:33N 38°22' E 015°36'1616.2
2015-Jun-27 03:33N 38°33' E 015°20'1616.1
2015-Jun-27 02:33N 38°44' E 015°05'6615.9
2015-Jun-26 22:24N 39°28' E 014°02'1416.1
2015-Jun-26 21:34N 39°37' E 013°49'1616.0
2015-Jun-26 20:33N 39°48' E 013°34'5516.0
2015-Jun-26 17:07N 40°25' E 012°41'916.1
2015-Jun-26 16:33N 40°32' E 012°32'11416.3
2015-Jun-26 09:33N 41°49' E 010°40'3815.9
2015-Jun-26 07:11N 42°15' E 010°03'1015.7
2015-Jun-26 06:34N 42°23' E 009°55'1615.7
2015-Jun-26 05:33N 42°38' E 009°49'1615.9
2015-Jun-26 04:33N 42°53' E 009°42'1616.0
2015-Jun-26 03:34N 43°08' E 009°36'1615.9
2015-Jun-26 02:33N 43°23' E 009°29'1615.6
2015-Jun-26 01:33N 43°38' E 009°21'1615.6
2015-Jun-26 00:34N 43°52' E 009°13'1616.0
2015-Jun-25 23:33N 44°07' E 009°05'1615.8
2015-Jun-25 22:33N 44°22' E 008°57'3 3.3
2015-Jun-25 21:33N 44°24' E 008°54'0 0.0
2015-Jun-25 20:33N 44°24' E 008°54'0 0.0
2015-Jun-25 19:33N 44°24' E 008°54'0 0.0
2015-Jun-25 18:32N 44°24' E 008°54'0 0.0
2015-Jun-25 17:32N 44°24' E 008°54'0 0.0
2015-Jun-25 16:31N 44°24' E 008°54'0 0.0
2015-Jun-25 15:31N 44°24' E 008°54'0 0.0
2015-Jun-25 14:33N 44°24' E 008°54'0 0.0
2015-Jun-25 13:33N 44°24' E 008°54'  

Dump ship's entire track history